KILM/ILM METAR and TAF weather

Enter ICAO airport designator
Station Type Date Time Source
KILM METAR 2019/06/16 12:53 UTC NOAA

KILM 161253Z 19008KT 10SM FEW034 BKN044 26/21 A3010 RMK AO2 SLP191 T02610206


Station Type Date Time Source
KILM Decoded METAR 2019/06/16 12:53 UTC NOAA

WILMINGTON INT'L AIRPORT, NC, United States (KILM) 34-16N 077-54W 9M
Jun 16, 2019 - 08:53 AM EDT / 2019.06.16 1253 UTC
Wind: from the S (190 degrees) at 9 MPH (8 KT):0
Visibility: 10 mile(s):0
Sky conditions: mostly cloudy
Temperature: 79.0 F (26.1 C)
Dew Point: 69.1 F (20.6 C)
Relative Humidity: 71%
Pressure (altimeter): 30.1 in. Hg (1019 hPa)
ob: KILM 161253Z 19008KT 10SM FEW034 BKN044 26/21 A3010 RMK AO2 SLP191 T02610206
cycle: 13

Station Type Date Time Source
KILM TAF 2019/06/16 12:28 UTC NOAA

TAF KILM 161126Z 1612/1712 21003KT P6SM BKN050
FM161500 19008KT P6SM SCT050
FM161900 19012KT P6SM FEW200
FM170300 22005KT P6SM SKC

Example: see airport list